Time;durP1;ratioP1;P1;durP2;ratioP2;P2;SDS_P1;SDS_P2;PMS_P1;PMS_P2;Temp;Humidity;BMP_temperature;BMP_pressure;BME280_temperature;BME280_humidity;BME280_pressure;Samples;Min_cycle;Max_cycle;Signal;HPM_P1;HPM_P2
2022/12/09 00:00:36;;;;;;;19.63;14.15;;;;;;;-2.17;100.00;100589.78;5002140;28;20296;-42
2022/12/09 00:03:01;;;;;;;20.27;14.48;;;;;;;-2.15;100.00;100593.31;4997215;28;20181;-41
2022/12/09 00:05:27;;;;;;;22.70;15.05;;;;;;;-2.23;100.00;100595.88;5008826;28;20184;-42
2022/12/09 00:07:52;;;;;;;20.88;15.50;;;;;;;-2.15;100.00;100604.69;5002624;28;20222;-43
2022/12/09 00:10:18;;;;;;;23.02;15.63;;;;;;;-2.12;100.00;100609.97;5005375;28;20648;-41
2022/12/09 00:12:44;;;;;;;21.73;15.82;;;;;;;-2.09;100.00;100603.88;4992584;28;20176;-42
2022/12/09 00:15:09;;;;;;;25.23;17.05;;;;;;;-2.07;100.00;100608.25;4999255;28;20869;-41
2022/12/09 00:17:35;;;;;;;23.02;15.93;;;;;;;-1.96;100.00;100607.50;4999900;28;20223;-42
2022/12/09 00:20:00;;;;;;;22.23;15.52;;;;;;;-2.03;100.00;100603.03;5002747;28;20287;-40
2022/12/09 00:22:26;;;;;;;22.52;16.35;;;;;;;-1.96;100.00;100610.13;5007997;28;20387;-41
2022/12/09 00:24:52;;;;;;;24.55;16.92;;;;;;;-1.93;100.00;100608.38;4999409;28;20177;-44
2022/12/09 00:27:17;;;;;;;25.17;17.23;;;;;;;-1.87;100.00;100610.19;4992496;28;20172;-42
2022/12/09 00:29:43;;;;;;;27.75;18.20;;;;;;;-1.79;100.00;100607.63;4992744;28;20185;-40
2022/12/09 00:32:09;;;;;;;27.50;19.10;;;;;;;-1.75;100.00;100615.56;5004813;28;20185;-41
2022/12/09 00:34:34;;;;;;;27.00;16.52;;;;;;;-1.79;100.00;100608.53;4995967;28;20289;-41
2022/12/09 00:36:59;;;;;;;28.25;17.83;;;;;;;-1.73;100.00;100607.69;5004275;28;20184;-44
2022/12/09 00:39:25;;;;;;;25.48;16.42;;;;;;;-1.67;100.00;100608.59;4998672;28;20211;-42
2022/12/09 00:41:51;;;;;;;24.63;17.13;;;;;;;-1.69;100.00;100605.09;4996643;28;20663;-42
2022/12/09 00:44:17;;;;;;;26.40;17.75;;;;;;;-1.73;100.00;100600.69;5008785;28;20901;-42
2022/12/09 00:46:43;;;;;;;22.95;17.15;;;;;;;-1.73;100.00;100598.06;5007036;28;20561;-42
2022/12/09 00:49:09;;;;;;;22.50;15.70;;;;;;;-1.75;100.00;100599.81;5000252;28;20289;-43
2022/12/09 00:51:35;;;;;;;23.42;15.18;;;;;;;-1.76;100.00;100603.28;4992317;28;20193;-42
2022/12/09 00:54:01;;;;;;;22.13;15.43;;;;;;;-1.71;100.00;100608.56;5001965;28;20232;-41
2022/12/09 00:56:28;;;;;;;23.58;15.63;;;;;;;-1.72;100.00;100602.44;5001646;28;20176;-40
2022/12/09 00:58:55;;;;;;;20.52;14.32;;;;;;;-1.73;100.00;100607.69;5002993;28;20212;-41
2022/12/09 01:01:21;;;;;;;24.10;14.77;;;;;;;-1.65;100.00;100600.75;5011576;28;20177;-39
2022/12/09 01:03:46;;;;;;;20.10;14.00;;;;;;;-1.62;100.00;100610.38;5008527;28;20191;-42
2022/12/09 01:06:19;;;;;;;19.20;13.57;;;;;;;-1.60;100.00;100604.28;4995035;28;20648;-41
2022/12/09 01:08:45;;;;;;;19.30;14.32;;;;;;;-1.67;100.00;100592.84;5007878;28;20181;-42
2022/12/09 01:11:24;;;;;;;21.38;13.30;;;;;;;-1.68;100.00;100595.47;5002394;28;20179;-42
2022/12/09 01:13:50;;;;;;;18.75;13.48;;;;;;;-1.66;100.00;100601.63;5011549;28;20685;-42
2022/12/09 01:16:23;;;;;;;19.63;13.05;;;;;;;-1.63;100.00;100595.50;4992638;28;20212;-40
2022/12/09 01:18:50;;;;;;;19.77;13.88;;;;;;;-1.62;100.00;100599.88;4998186;28;20220;-38
2022/12/09 01:21:16;;;;;;;19.08;12.85;;;;;;;-1.61;100.00;100596.41;4992945;28;20189;-41
2022/12/09 01:23:41;;;;;;;20.52;13.57;;;;;;;-1.63;100.00;100603.38;5006372;28;20173;-42
2022/12/09 01:26:07;;;;;;;18.67;12.32;;;;;;;-1.61;100.00;100601.66;5006295;28;20192;-40
2022/12/09 01:28:34;;;;;;;17.63;12.20;;;;;;;-1.57;100.00;100596.44;5009788;28;20218;-41
2022/12/09 01:31:10;;;;;;;17.92;12.05;;;;;;;-1.57;100.00;100587.69;5003056;28;20758;-42
2022/12/09 01:33:35;;;;;;;14.93;11.43;;;;;;;-1.61;100.00;100589.41;5004656;28;20215;-40
2022/12/09 01:36:11;;;;;;;15.02;10.88;;;;;;;-1.66;100.00;100594.63;4991137;28;20166;-40
2022/12/09 01:38:37;;;;;;;13.23;9.70;;;;;;;-1.59;100.00;100585.03;4989962;28;20205;-40
2022/12/09 01:41:05;;;;;;;13.80;10.63;;;;;;;-1.58;100.00;100591.16;5008828;28;20324;-41
2022/12/09 01:43:31;;;;;;;16.20;11.40;;;;;;;-1.60;100.00;100583.25;5006906;28;20263;-42
2022/12/09 01:45:57;;;;;;;15.65;11.10;;;;;;;-1.61;100.00;100584.13;4994687;28;20195;-43
2022/12/09 01:48:28;;;;;;;15.63;10.70;;;;;;;-1.51;100.00;100590.31;5007293;28;20176;-42
2022/12/09 01:51:04;;;;;;;16.65;11.88;;;;;;;-1.63;100.00;100588.50;5010841;28;20215;-43
2022/12/09 01:53:34;;;;;;;15.10;11.27;;;;;;;-1.64;100.00;100593.75;5004156;28;20199;-44
2022/12/09 01:56:04;;;;;;;15.82;11.52;;;;;;;-1.67;100.00;100590.22;4997543;28;20192;-41
2022/12/09 01:58:30;;;;;;;14.43;10.38;;;;;;;-1.71;100.00;100583.19;5007244;28;20180;-43
2022/12/09 02:00:56;;;;;;;13.13;9.65;;;;;;;-1.72;100.00;100588.44;4991542;28;20294;-42
2022/12/09 02:03:21;;;;;;;14.57;10.18;;;;;;;-1.71;100.00;100580.56;4990744;28;20196;-43
2022/12/09 02:05:47;;;;;;;14.25;9.82;;;;;;;-1.69;100.00;100586.69;5001435;28;20239;-42
2022/12/09 02:08:16;;;;;;;13.43;9.70;;;;;;;-1.68;100.00;100585.84;4989837;28;20192;-39
2022/12/09 02:11:04;;;;;;;11.38;9.45;;;;;;;-1.67;100.00;100576.22;5005383;28;20553;-41
2022/12/09 02:13:57;;;;;;;13.02;9.27;;;;;;;-1.64;100.00;100577.97;4991208;28;20177;-41
2022/12/09 02:16:28;;;;;;;12.73;9.07;;;;;;;-1.58;100.00;100583.28;4992686;28;20189;-43
2022/12/09 02:19:04;;;;;;;17.10;9.73;;;;;;;-1.57;100.00;100574.56;5005810;28;20212;-41
2022/12/09 02:21:56;;;;;;;14.75;9.48;;;;;;;-1.46;100.00;100575.50;4990985;28;20181;-42
2022/12/09 02:24:27;;;;;;;13.88;9.70;;;;;;;-1.55;100.00;100567.53;5006092;28;20722;-40
2022/12/09 02:27:04;;;;;;;14.73;9.63;;;;;;;-1.55;100.00;100570.16;5006174;28;20176;-40
2022/12/09 02:29:49;;;;;;;13.82;9.85;;;;;;;-1.62;100.00;100561.34;5006434;28;20197;-41
2022/12/09 02:32:31;;;;;;;14.45;10.63;;;;;;;-1.60;100.00;100561.38;4998794;28;20543;-41
2022/12/09 02:35:04;;;;;;;16.35;10.43;;;;;;;-1.60;100.00;100567.50;5005204;28;20215;-41
2022/12/09 02:37:41;;;;;;;16.60;11.38;;;;;;;-1.53;100.00;100576.31;5012797;28;20196;-42
2022/12/09 02:40:26;;;;;;;17.77;11.52;;;;;;;-1.52;100.00;100576.31;5000441;28;20742;-41
2022/12/09 02:42:54;;;;;;;21.05;12.63;;;;;;;-1.50;100.00;100578.97;5009566;28;20543;-43
2022/12/09 02:45:21;;;;;;;16.75;11.35;;;;;;;-1.48;100.00;100574.59;5009960;28;20193;-41
2022/12/09 02:47:53;;;;;;;14.68;9.98;;;;;;;-1.55;100.00;100571.06;5010452;28;20177;-44
2022/12/09 02:50:24;;;;;;;15.70;10.48;;;;;;;-1.56;100.00;100574.53;5012728;28;20284;-40
2022/12/09 02:52:52;;;;;;;19.13;11.20;;;;;;;-1.57;100.00;100571.91;5011002;28;20479;-42
2022/12/09 02:55:20;;;;;;;18.65;11.80;;;;;;;-1.54;100.00;100571.94;4991905;28;20176;-42
2022/12/09 02:57:51;;;;;;;19.80;12.57;;;;;;;-1.53;100.00;100571.03;5009423;28;20240;-41
2022/12/09 03:00:18;;;;;;;24.65;13.52;;;;;;;-1.56;100.00;100576.28;5007843;28;20220;-41
2022/12/09 03:02:48;;;;;;;22.88;13.68;;;;;;;-1.55;100.00;100572.78;4998265;28;20263;-40
2022/12/09 03:05:33;;;;;;;28.10;14.55;;;;;;;-1.55;100.00;100575.41;5010268;28;20279;-41
2022/12/09 03:08:26;;;;;;;23.45;12.55;;;;;;;-1.61;100.00;100572.75;4996584;28;20181;-43
2022/12/09 03:11:12;;;;;;;25.75;13.38;;;;;;;-1.59;100.00;100578.91;5013375;28;20713;-40
2022/12/09 03:14:00;;;;;;;26.15;13.43;;;;;;;-1.57;100.00;100571.91;4996963;28;20185;-41
2022/12/09 03:16:31;;;;;;;22.98;12.75;;;;;;;-1.55;100.00;100571.06;5023565;28;20254;-42
2022/12/09 03:19:26;;;;;;;28.63;12.90;;;;;;;-1.60;100.00;100582.38;5005935;28;20205;-43
2022/12/09 03:21:57;;;;;;;30.67;14.45;;;;;;;-1.61;100.00;100573.63;5005163;28;20200;-40
2022/12/09 03:24:31;;;;;;;30.25;14.48;;;;;;;-1.57;100.00;100571.91;4996996;28;20185;-41
2022/12/09 03:26:58;;;;;;;28.80;14.27;;;;;;;-1.59;100.00;100585.03;4993577;28;20295;-40
2022/12/09 03:29:27;;;;;;;33.25;15.93;;;;;;;-1.54;100.00;100577.19;4999678;28;20531;-43
2022/12/09 03:31:55;;;;;;;34.42;16.17;;;;;;;-1.51;100.00;100579.81;5000982;28;20187;-43
2022/12/09 03:34:25;;;;;;;34.08;15.43;;;;;;;-1.46;100.00;100580.75;4995359;28;20185;-41
2022/12/09 03:36:51;;;;;;;29.70;14.73;;;;;;;-1.53;100.00;100573.66;4995047;28;20189;-40
2022/12/09 03:39:24;;;;;;;30.73;14.20;;;;;;;-1.53;100.00;100571.03;4993397;28;20691;-41
2022/12/09 03:41:55;;;;;;;38.47;16.13;;;;;;;-1.53;100.00;100574.56;4991979;28;20201;-41
2022/12/09 03:44:40;;;;;;;47.72;14.02;;;;;;;-1.57;100.00;100572.78;5000575;28;20177;-43
2022/12/09 03:47:08;;;;;;;26.33;12.60;;;;;;;-1.54;100.00;100571.94;5004616;28;20192;-41
2022/12/09 03:49:35;;;;;;;33.50;13.57;;;;;;;-1.53;100.00;100556.19;5005905;28;20204;-44
2022/12/09 03:52:18;;;;;;;26.90;13.25;;;;;;;-1.56;100.00;100557.91;5008908;28;20286;-41
2022/12/09 03:54:46;;;;;;;35.90;13.82;;;;;;;-1.54;100.00;100564.91;5008579;28;20185;-41
2022/12/09 03:57:15;;;;;;;27.42;13.20;;;;;;;-1.54;100.00;100571.94;4999310;28;20185;-40
2022/12/09 03:59:43;;;;;;;33.92;14.85;;;;;;;-1.53;100.00;100568.41;5004649;28;20213;-42
2022/12/09 04:02:09;;;;;;;31.27;14.70;;;;;;;-1.50;100.00;100577.22;5002506;28;20180;-42
2022/12/09 04:04:39;;;;;;;33.22;15.75;;;;;;;-1.42;100.00;100573.75;4998438;28;20556;-41
2022/12/09 04:07:05;;;;;;;46.00;16.85;;;;;;;-1.54;100.00;100582.44;5005974;28;20192;-40
2022/12/09 04:09:31;;;;;;;40.22;17.65;;;;;;;-1.52;100.00;100576.31;4998558;28;20204;-40
2022/12/09 04:11:57;;;;;;;34.55;16.63;;;;;;;-1.54;100.00;100574.56;5008016;28;20193;-41
2022/12/09 04:14:22;;;;;;;37.97;17.33;;;;;;;-1.51;100.00;100569.31;4997423;28;20570;-41
2022/12/09 04:16:48;;;;;;;43.90;18.08;;;;;;;-1.54;100.00;100571.94;5000538;28;20188;-41
2022/12/09 04:19:14;;;;;;;40.13;19.27;;;;;;;-1.58;100.00;100570.16;5000423;28;20205;-42
2022/12/09 04:21:40;;;;;;;44.13;19.75;;;;;;;-1.57;100.00;100569.28;4997679;28;20192;-44
2022/12/09 04:24:05;;;;;;;38.65;19.13;;;;;;;-1.59;100.00;100579.78;4997047;28;20272;-42
2022/12/09 04:26:32;;;;;;;33.17;17.77;;;;;;;-1.59;100.00;100573.66;4994862;28;20660;-41
2022/12/09 04:28:58;;;;;;;38.53;19.45;;;;;;;-1.70;100.00;100584.09;4998797;28;20177;-44
2022/12/09 04:31:23;;;;;;;37.25;20.02;;;;;;;-1.61;100.00;100580.66;4998702;28;20275;-42
2022/12/09 04:33:49;;;;;;;43.17;19.27;;;;;;;-1.58;100.00;100576.28;4994186;28;20486;-39
2022/12/09 04:36:16;;;;;;;36.92;18.30;;;;;;;-1.62;100.00;100584.13;5007273;28;20185;-39
2022/12/09 04:38:43;;;;;;;40.35;19.33;;;;;;;-1.58;100.00;100581.53;5003990;28;20196;-41
2022/12/09 04:41:08;;;;;;;37.10;18.88;;;;;;;-1.61;100.00;100575.41;5025302;23;20226;-43
2022/12/09 04:43:34;;;;;;;39.17;19.17;;;;;;;-1.62;100.00;100585.00;5005838;28;20224;-44
2022/12/09 04:46:02;;;;;;;37.50;18.25;;;;;;;-1.59;100.00;100586.78;5010617;28;20250;-46
2022/12/09 04:48:28;;;;;;;37.75;19.40;;;;;;;-1.68;100.00;100588.47;5011271;28;20180;-46
2022/12/09 04:50:54;;;;;;;38.13;19.52;;;;;;;-1.60;100.00;100580.63;5010811;28;20203;-44
2022/12/09 04:53:20;;;;;;;35.67;19.17;;;;;;;-1.62;100.00;100573.63;5011630;28;20169;-46
2022/12/09 04:55:46;;;;;;;36.08;19.08;;;;;;;-1.62;100.00;100578.88;5010025;28;20168;-43
2022/12/09 04:58:11;;;;;;;38.60;17.90;;;;;;;-1.59;100.00;100582.41;5010525;28;20680;-43
2022/12/09 05:00:37;;;;;;;34.88;19.40;;;;;;;-1.57;100.00;100572.78;5011326;28;20299;-43
2022/12/09 05:03:02;;;;;;;36.47;19.52;;;;;;;-1.58;100.00;100568.38;5011062;28;20243;-48
2022/12/09 05:05:28;;;;;;;35.47;18.60;;;;;;;-1.58;100.00;100568.38;5011348;28;20191;-44
2022/12/09 05:07:53;;;;;;;35.65;17.98;;;;;;;-1.49;100.00;100564.94;5011122;28;20176;-48
2022/12/09 05:10:19;;;;;;;40.72;18.77;;;;;;;-1.54;100.00;100562.28;5011468;28;20201;-45
2022/12/09 05:12:44;;;;;;;35.92;19.98;;;;;;;-1.49;100.00;100557.06;5011473;28;20231;-47
2022/12/09 05:15:10;;;;;;;41.47;19.25;;;;;;;-1.50;100.00;100555.31;5010985;28;20196;-43
2022/12/09 05:17:36;;;;;;;40.35;19.55;;;;;;;-1.54;100.00;100564.03;5011028;28;20588;-45
2022/12/09 05:20:02;;;;;;;34.15;19.13;;;;;;;-1.53;100.00;100558.81;5010905;28;20209;-47
2022/12/09 05:22:27;;;;;;;36.65;19.20;;;;;;;-1.51;100.00;100558.81;5011223;28;20631;-47
2022/12/09 05:24:53;;;;;;;37.05;19.60;;;;;;;-1.56;100.00;100560.53;5011129;28;20524;-44
2022/12/09 05:27:18;;;;;;;33.08;18.40;;;;;;;-1.56;100.00;100569.28;5009610;28;20248;-46
2022/12/09 05:29:44;;;;;;;34.92;18.00;;;;;;;-1.56;100.00;100569.28;5010887;28;20189;-44
2022/12/09 05:32:10;;;;;;;35.17;19.02;;;;;;;-1.48;100.00;100572.84;5010572;28;20671;-43
2022/12/09 05:34:36;;;;;;;36.25;18.83;;;;;;;-1.54;100.00;100575.44;5009340;28;20226;-45
2022/12/09 05:37:02;;;;;;;35.25;19.65;;;;;;;-1.50;100.00;100577.22;5010907;28;20244;-44
2022/12/09 05:39:27;;;;;;;33.97;19.48;;;;;;;-1.54;100.00;100582.44;5010081;28;20215;-43
2022/12/09 05:41:53;;;;;;;39.28;20.88;;;;;;;-1.51;100.00;100577.19;5010849;28;20164;-44
2022/12/09 05:44:18;;;;;;;36.50;19.25;;;;;;;-1.55;100.00;100560.56;5010619;28;20165;-43
2022/12/09 05:46:44;;;;;;;38.50;20.13;;;;;;;-1.53;100.00;100564.06;5010462;28;20202;-48
2022/12/09 05:49:10;;;;;;;35.05;18.77;;;;;;;-1.46;100.00;100565.00;5010572;28;20210;-42
2022/12/09 05:51:35;;;;;;;36.15;19.83;;;;;;;-1.53;100.00;100568.41;5010033;28;20187;-44
2022/12/09 05:54:03;;;;;;;33.42;19.42;;;;;;;-1.61;100.00;100557.88;5010289;28;20169;-46
2022/12/09 05:56:29;;;;;;;33.40;19.00;;;;;;;-1.62;100.00;100557.84;5010166;28;20177;-46
2022/12/09 05:58:56;;;;;;;33.55;19.17;;;;;;;-1.61;100.00;100562.25;5010152;28;20200;-45
2022/12/09 06:01:22;;;;;;;32.78;18.60;;;;;;;-1.64;100.00;100564.84;5010673;28;20184;-44
2022/12/09 06:03:50;;;;;;;32.67;18.50;;;;;;;-1.55;100.00;100557.03;5010316;28;20169;-45
2022/12/09 06:06:18;;;;;;;34.50;20.30;;;;;;;-1.61;100.00;100560.50;5010565;28;20165;-47
2022/12/09 06:08:44;;;;;;;41.00;20.52;;;;;;;-1.61;100.00;100551.75;5014719;28;20194;-43
2022/12/09 06:11:19;;;;;;;40.08;20.50;;;;;;;-1.64;100.00;100550.00;5013180;28;20717;-43
2022/12/09 06:13:45;;;;;;;35.05;19.33;;;;;;;-1.64;100.00;100549.09;5014605;28;20214;-43
2022/12/09 06:16:13;;;;;;;35.70;19.88;;;;;;;-1.63;100.00;100553.47;5013846;28;20188;-45
2022/12/09 06:18:38;;;;;;;33.42;19.77;;;;;;;-1.49;100.00;100551.81;5014321;28;20195;-45
2022/12/09 06:21:08;;;;;;;34.85;20.35;;;;;;;-1.61;100.00;100544.75;5014106;28;20275;-46
2022/12/09 06:23:35;;;;;;;35.47;19.92;;;;;;;-1.59;100.00;100552.66;5013931;28;20661;-47
2022/12/09 06:26:01;;;;;;;32.38;18.58;;;;;;;-1.67;100.00;100550.81;5014127;28;20176;-43
2022/12/09 06:28:26;;;;;;;31.13;18.55;;;;;;;-1.68;100.00;100559.59;5012465;28;20627;-46
2022/12/09 06:30:52;;;;;;;34.65;20.25;;;;;;;-1.64;100.00;100559.59;5013961;28;20201;-49
2022/12/09 06:33:17;;;;;;;33.63;20.30;;;;;;;-1.70;100.00;100550.81;5014310;28;20227;-46
2022/12/09 06:35:43;;;;;;;30.85;19.25;;;;;;;-1.72;100.00;100547.28;5012605;28;20216;-46
2022/12/09 06:38:09;;;;;;;34.20;20.23;;;;;;;-1.71;100.00;100559.53;5013816;28;20619;-44
2022/12/09 06:40:34;;;;;;;34.65;19.52;;;;;;;-1.73;100.00;100557.78;5013361;28;20219;-44
2022/12/09 06:43:00;;;;;;;34.13;19.45;;;;;;;-1.74;100.00;100559.53;5013949;28;20380;-44
2022/12/09 06:45:25;;;;;;;28.85;19.30;;;;;;;-1.79;100.00;100555.09;5013613;28;20193;-45
2022/12/09 06:47:51;;;;;;;32.65;20.02;;;;;;;-1.80;100.00;100558.59;5013551;28;20165;-46
2022/12/09 06:50:16;;;;;;;29.80;19.55;;;;;;;-1.80;100.00;100554.22;5012254;28;20204;-44
2022/12/09 06:52:42;;;;;;;31.75;19.50;;;;;;;-1.82;100.00;100560.34;5013587;28;20200;-44
2022/12/09 06:55:08;;;;;;;38.70;19.63;;;;;;;-1.89;100.00;100569.91;5013827;28;20231;-45
2022/12/09 06:57:34;;;;;;;35.00;21.02;;;;;;;-1.91;100.00;100562.00;5013595;28;20650;-44
2022/12/09 07:00:00;;;;;;;37.47;21.17;;;;;;;-1.86;100.00;100569.94;5013321;28;20205;-46
2022/12/09 07:02:26;;;;;;;34.92;20.67;;;;;;;-1.85;100.00;100560.31;5013396;28;20165;-47
2022/12/09 07:04:52;;;;;;;35.88;21.30;;;;;;;-1.87;100.00;100553.31;5013170;28;20169;-47
2022/12/09 07:07:18;;;;;;;34.75;21.05;;;;;;;-1.87;100.00;100555.06;5023210;28;20179;-45
2022/12/09 07:09:43;;;;;;;36.42;20.80;;;;;;;-1.89;100.00;100564.66;5033578;28;20191;-48
2022/12/09 07:12:09;;;;;;;39.15;21.52;;;;;;;-1.84;100.00;100572.56;5023016;28;20640;-51
2022/12/09 07:14:35;;;;;;;37.70;20.60;;;;;;;-1.81;100.00;100565.63;5009824;28;20197;-47
2022/12/09 07:17:01;;;;;;;35.92;20.88;;;;;;;-1.78;100.00;100563.00;5002174;28;20185;-48
2022/12/09 07:19:28;;;;;;;39.80;20.73;;;;;;;-1.84;100.00;100556.81;4996127;28;20346;-48
2022/12/09 07:21:54;;;;;;;36.42;21.45;;;;;;;-1.87;100.00;100552.44;4996202;28;20196;-48
2022/12/09 07:24:20;;;;;;;32.08;20.63;;;;;;;-1.96;100.00;100565.50;5002667;28;20180;-48
2022/12/09 07:26:46;;;;;;;35.08;20.15;;;;;;;-1.91;100.00;100561.13;4999345;28;20258;-50
2022/12/09 07:29:11;;;;;;;32.78;21.00;;;;;;;-1.94;100.00;100575.13;4999123;28;20676;-48
2022/12/09 07:31:37;;;;;;;34.47;20.95;;;;;;;-1.89;100.00;100581.28;5000600;28;20211;-48
2022/12/09 07:34:03;;;;;;;37.30;22.52;;;;;;;-1.94;100.00;100583.00;4995646;28;20276;-48
2022/12/09 07:36:31;;;;;;;35.03;20.83;;;;;;;-1.92;100.00;100590.91;4999491;28;20180;-50
2022/12/09 07:38:58;;;;;;;31.23;19.95;;;;;;;-1.97;100.00;100582.09;4994989;28;20287;-48
2022/12/09 07:41:24;;;;;;;32.45;19.80;;;;;;;-1.91;100.00;100593.53;4996679;28;20664;-48
2022/12/09 07:43:50;;;;;;;30.85;20.33;;;;;;;-1.92;100.00;100601.41;4996273;28;20675;-49
2022/12/09 07:46:17;;;;;;;33.22;19.75;;;;;;;-1.91;100.00;100603.16;5005084;28;20231;-48
2022/12/09 07:48:44;;;;;;;32.53;19.88;;;;;;;-1.87;100.00;100604.94;5016970;28;20183;-48
2022/12/09 07:51:09;;;;;;;34.55;20.60;;;;;;;-1.88;100.00;100603.16;4999063;28;20201;-48
2022/12/09 07:53:36;;;;;;;32.33;21.17;;;;;;;-1.85;100.00;100615.47;4997235;28;20185;-49
2022/12/09 07:56:04;;;;;;;29.50;19.33;;;;;;;-1.72;100.00;100620.81;5005963;28;20256;-48
2022/12/09 07:58:29;;;;;;;33.83;20.75;;;;;;;-1.77;100.00;100617.28;5001800;28;20192;-48
2022/12/09 08:00:55;;;;;;;30.40;20.02;;;;;;;-1.77;100.00;100625.19;5004013;28;20205;-48
2022/12/09 08:03:20;;;;;;;35.55;21.92;;;;;;;-1.70;100.00;100624.34;4999167;28;20834;-48
2022/12/09 08:05:50;;;;;;;35.92;20.85;;;;;;;-1.69;100.00;100620.84;4999000;28;20193;-50
2022/12/09 08:08:15;;;;;;;37.83;20.85;;;;;;;-1.62;100.00;100610.38;4996995;28;20221;-47
2022/12/09 08:10:42;;;;;;;35.65;19.95;;;;;;;-1.56;100.00;100621.81;5000193;28;20282;-49
2022/12/09 08:13:08;;;;;;;35.92;21.55;;;;;;;-1.52;100.00;100614.84;4998280;28;20728;-49
2022/12/09 08:15:34;;;;;;;30.02;19.25;;;;;;;-1.47;100.00;100616.63;4997440;28;20211;-48
2022/12/09 08:18:00;;;;;;;30.13;19.63;;;;;;;-1.27;100.00;100611.53;4996814;28;20208;-49
2022/12/09 08:20:26;;;;;;;27.98;19.58;;;;;;;-1.30;100.00;100610.63;4994171;28;20224;-48
2022/12/09 08:22:52;;;;;;;29.92;20.92;;;;;;;-1.29;100.00;100620.25;4999632;28;20212;-47
2022/12/09 08:25:17;;;;;;;31.17;20.75;;;;;;;-1.24;100.00;100623.81;4993605;28;20340;-48
2022/12/09 08:27:43;;;;;;;29.75;20.02;;;;;;;-1.18;100.00;100623.88;4992330;28;20268;-49
2022/12/09 08:30:09;;;;;;;34.30;22.30;;;;;;;-1.14;100.00;100615.09;5004395;28;20277;-47
2022/12/09 08:32:35;;;;;;;34.47;21.30;;;;;;;-1.05;100.00;100614.28;4992996;28;20190;-47
2022/12/09 08:35:00;;;;;;;30.23;20.88;;;;;;;-1.01;100.00;100623.06;5005717;28;20195;-47
2022/12/09 08:37:26;;;;;;;34.08;22.55;;;;;;;-1.00;100.00;100607.31;5000200;28;20181;-49
2022/12/09 08:39:51;;;;;;;32.22;21.58;;;;;;;-0.97;100.00;100615.19;4995237;28;20221;-48
2022/12/09 08:42:17;;;;;;;29.73;20.38;;;;;;;-0.93;100.00;100605.59;4996867;28;20189;-48
2022/12/09 08:44:42;;;;;;;34.03;22.48;;;;;;;-0.87;100.00;100600.38;4997113;28;20283;-47
2022/12/09 08:47:08;;;;;;;31.67;21.30;;;;;;;-0.95;100.00;100610.84;4999709;28;20198;-49
2022/12/09 08:49:34;;;;;;;32.15;21.85;;;;;;;-0.93;100.00;100609.09;5000350;28;20283;-48
2022/12/09 08:52:00;;;;;;;31.70;22.13;;;;;;;-0.79;100.00;100606.50;5005258;28;20247;-47
2022/12/09 08:54:25;;;;;;;27.85;21.15;;;;;;;-0.64;100.00;100613.59;5001257;28;20192;-48
2022/12/09 08:56:55;;;;;;;33.20;20.95;;;;;;;-0.60;100.00;100607.47;5000056;28;20267;-47
2022/12/09 08:59:22;;;;;;;30.42;20.75;;;;;;;-0.48;100.00;100610.16;4996310;28;20250;-48
2022/12/09 09:01:47;;;;;;;31.48;21.23;;;;;;;-0.58;100.00;100616.25;4996011;28;20196;-48
2022/12/09 09:04:16;;;;;;;29.85;20.35;;;;;;;-0.47;100.00;100617.16;5003268;28;20180;-47
2022/12/09 09:06:44;;;;;;;26.52;19.77;;;;;;;-0.50;100.00;100622.44;4992251;28;20271;-48
2022/12/09 09:09:11;;;;;;;33.00;20.63;;;;;;;-0.22;100.00;100615.50;4991417;28;20184;-48
2022/12/09 09:11:37;;;;;;;29.30;20.98;;;;;;;-0.30;100.00;100605.84;4998618;28;20204;-48
2022/12/09 09:14:05;;;;;;;27.30;20.92;;;;;;;-0.48;100.00;100610.16;4995726;28;20193;-48
2022/12/09 09:16:31;;;;;;;28.00;21.25;;;;;;;-0.38;100.00;100618.09;4995065;28;20184;-48
2022/12/09 09:18:56;;;;;;;28.23;21.70;;;;;;;-0.32;100.00;100599.69;4999386;28;20196;-49
2022/12/09 09:21:25;;;;;;;28.92;20.95;;;;;;;-0.32;100.00;100602.31;4994330;28;20217;-50
2022/12/09 09:23:51;;;;;;;30.30;21.42;;;;;;;-0.23;100.00;100599.69;5002913;28;20196;-50
2022/12/09 09:26:19;;;;;;;33.97;21.17;;;;;;;-0.26;100.00;100604.97;4997353;28;20207;-48
2022/12/09 09:28:45;;;;;;;28.15;21.23;;;;;;;-0.30;100.00;100598.81;4994149;28;20193;-49
2022/12/09 09:31:14;;;;;;;29.83;21.10;;;;;;;-0.31;100.00;100598.78;5001593;28;20359;-48
2022/12/09 09:33:40;;;;;;;34.80;21.33;;;;;;;-0.19;100.00;100600.59;4996089;28;20187;-47
2022/12/09 09:36:07;;;;;;;32.70;21.88;;;;;;;-0.29;100.00;100599.69;4999084;28;20665;-48
2022/12/09 09:38:34;;;;;;;29.38;21.88;;;;;;;-0.18;100.00;100603.19;4997805;28;20327;-49
2022/12/09 09:41:00;;;;;;;27.77;22.10;;;;;;;-0.29;100.00;100592.66;4998480;28;20302;-48
2022/12/09 09:43:32;;;;;;;29.73;22.25;;;;;;;-0.30;100.00;100590.03;4996122;28;20245;-48
2022/12/09 09:45:58;;;;;;;29.70;21.35;;;;;;;-0.21;100.00;100596.19;4999128;28;20567;-47
2022/12/09 09:48:34;;;;;;;27.50;21.33;;;;;;;-0.23;100.00;100590.03;4999709;28;20189;-48
2022/12/09 09:51:17;;;;;;;27.23;21.33;;;;;;;-0.18;100.00;100587.41;4995800;28;20208;-50
2022/12/09 09:53:44;;;;;;;32.85;22.55;;;;;;;-0.13;100.00;100596.22;5006042;28;20307;-49
2022/12/09 09:56:42;;;;;;;27.27;21.02;;;;;;;-0.04;100.00;100592.72;5006370;28;21019;-47
2022/12/09 09:59:29;;;;;;;28.85;21.70;;;;;;;-0.06;100.00;100595.34;5002014;28;20204;-48
2022/12/09 10:02:14;;;;;;;30.38;22.85;;;;;;;-0.14;100.00;100597.06;4993025;28;20212;-48
2022/12/09 10:04:49;;;;;;;32.28;22.08;;;;;;;-0.10;100.00;100583.03;5006329;28;20200;-48
2022/12/09 10:07:20;;;;;;;28.90;21.75;;;;;;;-0.20;100.00;100594.41;5000294;28;20788;-49
2022/12/09 10:10:01;;;;;;;28.33;19.90;;;;;;;0.35;100.00;100590.94;4993390;28;20581;-48
2022/12/09 10:12:47;;;;;;;31.23;23.42;;;;;;;0.21;100.00;100590.97;4998368;28;20223;-49
2022/12/09 10:15:21;;;;;;;29.98;23.45;;;;;;;0.14;100.00;100590.09;4996445;28;20188;-48
2022/12/09 10:18:07;;;;;;;28.25;22.52;;;;;;;0.06;100.00;100583.06;5005227;28;20181;-48
2022/12/09 10:20:32;;;;;;;29.08;21.67;;;;;;;0.61;100.00;100583.03;4993736;28;20225;-47
2022/12/09 10:23:08;;;;;;;27.08;20.90;;;;;;;0.06;100.00;100583.06;4999431;28;20333;-48
2022/12/09 10:25:36;;;;;;;26.17;20.60;;;;;;;-0.07;100.00;100579.53;4995317;28;20181;-49
2022/12/09 10:28:24;;;;;;;25.55;20.85;;;;;;;0.02;100.00;100581.28;5002562;28;20301;-48
2022/12/09 10:30:53;;;;;;;29.00;20.80;;;;;;;-0.04;100.00;100582.19;5011524;28;20205;-49
2022/12/09 10:33:27;;;;;;;29.25;19.35;;;;;;;0.08;100.00;100569.00;5001951;28;20192;-50
2022/12/09 10:35:53;;;;;;;25.23;19.60;;;;;;;0.16;100.00;100572.53;5004508;28;20207;-46
2022/12/09 10:38:20;;;;;;;24.70;18.65;;;;;;;0.22;100.00;100566.38;5002700;28;20632;-48
2022/12/09 10:40:47;;;;;;;26.20;20.05;;;;;;;0.16;100.00;100564.63;5005860;28;20216;-49
2022/12/09 10:43:48;;;;;;;23.38;18.23;;;;;;;0.04;100.00;100569.88;5003527;28;20212;-48
2022/12/09 10:46:14;;;;;;;25.08;18.48;;;;;;;0.04;100.00;100558.47;5003332;28;20184;-49
2022/12/09 10:48:45;;;;;;;25.25;17.65;;;;;;;0.03;100.00;100562.00;4993133;28;20200;-49
2022/12/09 10:51:17;;;;;;;22.38;17.42;;;;;;;0.01;100.00;100569.00;4995606;28;20209;-47
2022/12/09 10:53:54;;;;;;;20.65;17.23;;;;;;;0.11;100.00;100549.69;4998539;28;20224;-47
2022/12/09 10:56:59;;;;;;;21.55;16.83;;;;;;;0.08;100.00;100562.88;5002194;28;20188;-48
2022/12/09 10:59:26;;;;;;;23.65;16.75;;;;;;;0.12;100.00;100556.72;5000985;28;20249;-48
2022/12/09 11:01:55;;;;;;;21.40;17.27;;;;;;;0.09;100.00;100551.44;5011052;28;20177;-49
2022/12/09 11:04:34;;;;;;;23.50;16.35;;;;;;;0.17;100.00;100554.94;5000255;28;20694;-49
2022/12/09 11:07:10;;;;;;;22.05;17.02;;;;;;;0.09;100.00;100556.69;4982012;28;20223;-48
2022/12/09 11:09:41;;;;;;;21.73;16.27;;;;;;;0.07;100.00;100559.34;5003037;28;20217;-48